Crystal, Michigan
Current Conditions -  °F | °C
As of 8:35 PM on Monday 22 Dec 2014 (Local Time) from KAMN Reporting Station
Light Rain Light Rain  
Wind Chill: 26°   Ceiling: 2800
Heat Index: 33°   Visibility: 5mi
Dew Point: 31°   Wind: 9mph
Humidity: 93%   Direction: 80°E
Pressure: 29.89"   Gusts: NA
Location:  43.26°N, 84.91°W
Report Text: KAMN 230135Z AUTO 08008KT 5SM -RA BKN028 OVC038 01/00 A2989 RMK AO2 T00071003
Loading
Personal Weather Stations






























Interactive Weather Map New forecast layout! Learn more

10-Day Weather Forecast

Advertisements
Track Severe Weather on mobile